Time;durP1;ratioP1;P1;durP2;ratioP2;P2;SDS_P1;SDS_P2;PMS_P1;PMS_P2;Temp;Humidity;BMP_temperature;BMP_pressure;BME280_temperature;BME280_humidity;BME280_pressure;Samples;Min_cycle;Max_cycle;Signal;HPM_P1;HPM_P2
2023/05/13 00:01:16;;;;;;;14.30;9.50;;;11.50;99.90;;;;;;4973830;28;20031;-50
2023/05/13 00:03:42;;;;;;;17.10;9.57;;;11.50;99.90;;;;;;4974166;28;20027;-50
2023/05/13 00:06:08;;;;;;;14.60;9.63;;;11.50;99.90;;;;;;4973980;28;20042;-53
2023/05/13 00:08:33;;;;;;;18.38;10.23;;;11.50;99.90;;;;;;4974110;28;20058;-52
2023/05/13 00:10:59;;;;;;;15.43;10.15;;;11.50;99.90;;;;;;4973677;28;20034;-53
2023/05/13 00:13:25;;;;;;;17.27;10.93;;;11.50;99.90;;;;;;4973988;28;20102;-49
2023/05/13 00:15:51;;;;;;;16.17;10.30;;;11.50;99.90;;;;;;4973868;28;20082;-52
2023/05/13 00:18:17;;;;;;;14.55;9.52;;;11.50;99.90;;;;;;4973849;28;20476;-51
2023/05/13 00:20:43;;;;;;;15.13;9.73;;;11.50;99.90;;;;;;4973657;28;20042;-49
2023/05/13 00:23:10;;;;;;;14.60;9.80;;;11.60;99.90;;;;;;4973849;28;20022;-52
2023/05/13 00:25:36;;;;;;;16.58;9.80;;;11.50;99.90;;;;;;4973650;28;20105;-49
2023/05/13 00:28:03;;;;;;;16.10;9.90;;;11.60;99.90;;;;;;4974025;28;20043;-50
2023/05/13 00:30:29;;;;;;;14.50;10.18;;;11.60;99.90;;;;;;4972373;28;20035;-50
2023/05/13 00:32:54;;;;;;;15.85;9.85;;;11.60;99.90;;;;;;4972131;28;20134;-52
2023/05/13 00:35:20;;;;;;;16.42;10.43;;;11.70;99.90;;;;;;4973533;28;20118;-50
2023/05/13 00:37:46;;;;;;;16.15;9.52;;;11.60;99.90;;;;;;4973537;28;20102;-50
2023/05/13 00:40:20;;;;;;;14.43;9.20;;;11.70;99.90;;;;;;4973119;28;20531;-50
2023/05/13 00:42:47;;;;;;;19.33;10.43;;;11.60;99.90;;;;;;4973240;28;20027;-49
2023/05/13 00:45:12;;;;;;;13.80;9.82;;;11.70;99.90;;;;;;4972346;28;20026;-50
2023/05/13 00:47:39;;;;;;;16.35;10.55;;;11.70;99.90;;;;;;4973385;28;20522;-52
2023/05/13 00:50:07;;;;;;;16.93;9.40;;;11.70;99.90;;;;;;4973210;28;20035;-49
2023/05/13 00:52:33;;;;;;;15.63;9.68;;;11.60;99.90;;;;;;4971693;28;20186;-50
2023/05/13 00:54:59;;;;;;;14.37;9.17;;;11.60;99.90;;;;;;4973062;28;20396;-51
2023/05/13 00:57:25;;;;;;;15.33;10.07;;;11.60;99.90;;;;;;4971679;28;20023;-50
2023/05/13 00:59:51;;;;;;;14.43;9.83;;;11.50;99.90;;;;;;4973371;28;20034;-49
2023/05/13 01:02:47;;;;;;;14.20;9.50;;;11.50;99.90;;;;;;4972741;28;20040;-53
2023/05/13 01:05:34;;;;;;;14.60;9.10;;;11.50;99.90;;;;;;4971655;28;20506;-50
2023/05/13 01:08:29;;;;;;;13.60;9.20;;;11.50;99.90;;;;;;4972897;28;20122;-51
2023/05/13 01:10:55;;;;;;;13.27;9.07;;;11.40;99.90;;;;;;4972778;28;20039;-51
2023/05/13 01:13:25;;;;;;;12.48;9.13;;;11.40;99.90;;;;;;4972642;28;20041;-50
2023/05/13 01:16:05;;;;;;;13.93;8.83;;;11.40;99.90;;;;;;4973258;28;20435;-50
2023/05/13 01:18:44;;;;;;;16.10;9.57;;;11.40;99.90;;;;;;4971909;28;20053;-49
2023/05/13 01:21:10;;;;;;;;;;;11.40;99.90;;;;;;4972069;28;20109;-51
2023/05/13 01:23:36;;;;;;;14.53;9.17;;;11.40;99.90;;;;;;4971566;28;19917;-49
2023/05/13 01:26:03;;;;;;;14.70;9.05;;;11.40;99.90;;;;;;4971558;28;20049;-49
2023/05/13 01:28:31;;;;;;;16.30;9.47;;;11.30;99.90;;;;;;4971616;28;20034;-50
2023/05/13 01:30:58;;;;;;;15.67;10.07;;;11.30;99.90;;;;;;4971498;28;20058;-50
2023/05/13 01:33:25;;;;;;;14.97;8.73;;;11.30;99.90;;;;;;4971205;28;20035;-50
2023/05/13 01:35:51;;;;;;;15.80;9.77;;;11.30;99.90;;;;;;4972653;28;20027;-53
2023/05/13 01:38:20;;;;;;;16.53;9.50;;;11.30;99.90;;;;;;4971221;28;20114;-50
2023/05/13 01:40:50;;;;;;;15.67;9.50;;;11.30;99.90;;;;;;4970945;28;20054;-51
2023/05/13 01:43:17;;;;;;;15.63;9.23;;;11.30;99.90;;;;;;4970961;28;20030;-50
2023/05/13 01:45:45;;;;;;;15.93;9.70;;;11.30;99.90;;;;;;4971172;28;20508;-49
2023/05/13 01:48:11;;;;;;;13.80;8.40;;;11.20;99.90;;;;;;4971017;28;20035;-50
2023/05/13 01:50:41;;;;;;;13.70;9.20;;;11.20;99.90;;;;;;4970827;28;20030;-51
2023/05/13 01:53:08;;;;;;;13.47;9.17;;;11.20;99.90;;;;;;4970517;28;20042;-50
2023/05/13 01:55:36;;;;;;;14.87;9.47;;;11.20;99.90;;;;;;4970983;28;20062;-49
2023/05/13 01:58:03;;;;;;;15.13;9.60;;;11.20;99.90;;;;;;4970933;28;20033;-51
2023/05/13 02:00:29;;;;;;;15.03;9.23;;;11.20;99.90;;;;;;4972194;28;20026;-50
2023/05/13 02:02:55;;;;;;;13.77;8.67;;;11.20;99.90;;;;;;4971869;28;20502;-49
2023/05/13 02:05:22;;;;;;;13.83;8.77;;;11.20;99.90;;;;;;4972045;28;20030;-49
2023/05/13 02:07:48;;;;;;;13.37;9.07;;;11.20;99.90;;;;;;4971483;28;20443;-50
2023/05/13 02:10:13;;;;;;;16.27;9.37;;;11.10;99.90;;;;;;4970116;28;20043;-50
2023/05/13 02:12:39;;;;;;;14.87;9.97;;;11.10;99.90;;;;;;4971780;28;20031;-49
2023/05/13 02:15:05;;;;;;;14.00;9.47;;;11.10;99.90;;;;;;4971901;28;20031;-52
2023/05/13 02:17:31;;;;;;;15.27;9.33;;;11.10;99.90;;;;;;4970810;28;20069;-50
2023/05/13 02:19:57;;;;;;;12.43;8.90;;;11.00;99.90;;;;;;4970833;28;20051;-51
2023/05/13 02:22:23;;;;;;;17.10;9.50;;;11.00;99.90;;;;;;4953921;28;20479;-50
2023/05/13 02:24:48;;;;;;;13.90;8.97;;;11.00;99.90;;;;;;4970518;28;20082;-50
2023/05/13 02:27:15;;;;;;;13.30;9.03;;;11.00;99.90;;;;;;4971867;28;20066;-49
2023/05/13 02:29:41;;;;;;;15.50;9.10;;;11.00;99.90;;;;;;4970523;28;20042;-51
2023/05/13 02:32:07;;;;;;;14.27;9.60;;;11.00;99.90;;;;;;4971507;28;20035;-52
2023/05/13 02:34:33;;;;;;;15.43;9.60;;;10.90;99.90;;;;;;4970484;28;20395;-51
2023/05/13 02:36:59;;;;;;;14.20;9.03;;;10.90;99.90;;;;;;4970267;28;20030;-51
2023/05/13 02:39:24;;;;;;;14.23;9.20;;;10.90;99.90;;;;;;4970467;28;20086;-51
2023/05/13 02:41:51;;;;;;;17.10;10.37;;;10.90;99.90;;;;;;4970043;28;20034;-50
2023/05/13 02:44:17;;;;;;;15.63;9.70;;;10.90;99.90;;;;;;4970546;28;20027;-52
2023/05/13 02:46:44;;;;;;;14.77;9.50;;;10.90;99.90;;;;;;4970495;28;20027;-51
2023/05/13 02:49:10;;;;;;;14.27;9.07;;;10.90;99.90;;;;;;4970433;28;20542;-52
2023/05/13 02:51:36;;;;;;;14.53;9.47;;;10.80;99.90;;;;;;4971536;28;20031;-51
2023/05/13 02:54:03;;;;;;;13.80;9.10;;;10.80;99.90;;;;;;4970282;28;20039;-51
2023/05/13 02:56:29;;;;;;;14.37;9.73;;;10.80;99.90;;;;;;4970304;28;20124;-53
2023/05/13 02:58:55;;;;;;;17.10;9.63;;;10.80;99.90;;;;;;4971601;28;20047;-51
2023/05/13 03:01:21;;;;;;;14.13;9.47;;;10.80;99.90;;;;;;4970071;28;20113;-52
2023/05/13 03:03:47;;;;;;;14.70;8.90;;;10.80;99.90;;;;;;4971353;28;20031;-50
2023/05/13 03:06:13;;;;;;;15.20;9.47;;;10.70;99.90;;;;;;4969865;28;20058;-51
2023/05/13 03:08:38;;;;;;;14.53;9.20;;;10.70;99.90;;;;;;4970173;28;20090;-49
2023/05/13 03:11:04;;;;;;;14.90;9.87;;;10.70;99.90;;;;;;4971136;28;20042;-53
2023/05/13 03:13:31;;;;;;;15.00;9.23;;;10.70;99.90;;;;;;4969956;28;20031;-50
2023/05/13 03:15:57;;;;;;;15.17;9.50;;;10.70;99.90;;;;;;4970161;28;20060;-50
2023/05/13 03:18:23;;;;;;;14.67;9.37;;;10.70;99.90;;;;;;4970150;28;20031;-52
2023/05/13 03:20:49;;;;;;;15.60;9.10;;;10.60;99.90;;;;;;4972085;28;20155;-50
2023/05/13 03:23:15;;;;;;;13.97;9.27;;;10.60;99.90;;;;;;4974719;28;20371;-53
2023/05/13 03:25:42;;;;;;;15.33;9.43;;;10.60;99.90;;;;;;4973776;28;20634;-53
2023/05/13 03:28:08;;;;;;;15.10;9.73;;;10.60;99.90;;;;;;4973487;28;20062;-52
2023/05/13 03:30:37;;;;;;;15.00;9.27;;;10.50;99.90;;;;;;4973405;28;20027;-52
2023/05/13 03:33:08;;;;;;;15.20;9.93;;;10.60;99.90;;;;;;4973276;28;20046;-51
2023/05/13 03:35:34;;;;;;;13.87;8.73;;;10.50;99.90;;;;;;4973206;28;20058;-50
2023/05/13 03:38:00;;;;;;;15.40;9.93;;;10.50;99.90;;;;;;4973318;28;20050;-50
2023/05/13 03:40:26;;;;;;;13.93;8.70;;;10.40;99.90;;;;;;4973105;28;20062;-50
2023/05/13 03:42:52;;;;;;;14.57;9.17;;;10.50;99.90;;;;;;4974304;28;20031;-51
2023/05/13 03:45:20;;;;;;;14.80;9.77;;;10.40;99.90;;;;;;4973246;28;20060;-50
2023/05/13 03:47:49;;;;;;;16.58;9.35;;;10.40;99.90;;;;;;4973121;28;20411;-51
2023/05/13 03:50:16;;;;;;;16.13;9.67;;;10.40;99.90;;;;;;4972793;28;20088;-52
2023/05/13 03:52:43;;;;;;;14.10;8.90;;;10.40;99.90;;;;;;4972944;28;20065;-50
2023/05/13 03:55:09;;;;;;;15.13;8.87;;;10.40;99.90;;;;;;4973025;28;20086;-53
2023/05/13 03:57:35;;;;;;;15.73;9.63;;;10.40;99.90;;;;;;4974270;28;20459;-53
2023/05/13 04:00:02;;;;;;;14.77;9.03;;;10.40;99.90;;;;;;4972991;28;20038;-53
2023/05/13 04:02:28;;;;;;;14.73;9.33;;;10.40;99.90;;;;;;4974050;28;20114;-50
2023/05/13 04:04:54;;;;;;;13.13;8.47;;;10.40;99.90;;;;;;4972722;28;20611;-52
2023/05/13 04:07:19;;;;;;;14.83;9.40;;;10.40;99.90;;;;;;4972786;28;20121;-51
2023/05/13 04:09:45;;;;;;;12.77;8.10;;;10.40;99.90;;;;;;4974039;28;20027;-52
2023/05/13 04:12:11;;;;;;;14.20;9.43;;;10.50;99.90;;;;;;4973584;28;20475;-50
2023/05/13 04:14:38;;;;;;;12.67;8.87;;;10.50;99.90;;;;;;4974019;28;20039;-52
2023/05/13 04:17:04;;;;;;;14.00;9.23;;;10.50;99.90;;;;;;4972492;28;20037;-53
2023/05/13 04:19:30;;;;;;;15.07;8.90;;;10.50;99.90;;;;;;4972604;28;20026;-51
2023/05/13 04:21:56;;;;;;;13.13;9.33;;;10.50;99.90;;;;;;4972006;28;20033;-52
2023/05/13 04:24:22;;;;;;;14.87;8.80;;;10.50;99.90;;;;;;4973778;28;20030;-52
2023/05/13 04:26:48;;;;;;;14.70;8.63;;;10.50;99.90;;;;;;4973768;28;20042;-52
2023/05/13 04:29:16;;;;;;;14.47;8.97;;;10.50;99.90;;;;;;4973589;28;20042;-53
2023/05/13 04:31:41;;;;;;;12.47;8.17;;;10.50;99.90;;;;;;4971086;28;20216;-50
2023/05/13 04:34:07;;;;;;;13.87;8.77;;;10.50;99.90;;;;;;4973852;28;20379;-50
2023/05/13 04:36:33;;;;;;;13.63;8.30;;;10.60;99.90;;;;;;4972125;28;20035;-50
2023/05/13 04:38:59;;;;;;;14.73;8.80;;;10.60;99.90;;;;;;4972276;28;20030;-50
2023/05/13 04:41:25;;;;;;;14.00;8.20;;;10.60;99.90;;;;;;4971853;28;20110;-49
2023/05/13 04:43:51;;;;;;;14.00;8.67;;;10.60;99.90;;;;;;4973326;28;20023;-50
2023/05/13 04:46:17;;;;;;;14.13;8.23;;;10.60;99.90;;;;;;4972036;28;20500;-49
2023/05/13 04:48:46;;;;;;;14.67;9.10;;;10.70;99.90;;;;;;4973292;28;20023;-52
2023/05/13 04:51:16;;;;;;;11.70;8.27;;;10.70;99.90;;;;;;4971712;28;20130;-53
2023/05/13 04:53:41;;;;;;;14.52;8.70;;;10.80;99.90;;;;;;4971769;28;20042;-54
2023/05/13 04:56:08;;;;;;;15.10;7.83;;;10.80;99.90;;;;;;4972049;28;20042;-51
2023/05/13 04:58:33;;;;;;;13.53;7.53;;;10.80;99.90;;;;;;4972047;28;20031;-54
2023/05/13 05:01:00;;;;;;;12.90;8.63;;;10.90;99.90;;;;;;4972383;28;20049;-50
2023/05/13 05:03:26;;;;;;;11.80;8.33;;;11.00;99.90;;;;;;4972405;28;20491;-50
2023/05/13 05:05:54;;;;;;;13.17;8.43;;;11.10;99.90;;;;;;4974101;28;20059;-50
2023/05/13 05:08:21;;;;;;;14.30;8.27;;;11.10;99.90;;;;;;4973421;28;20126;-50
2023/05/13 05:10:48;;;;;;;12.67;8.40;;;11.20;99.90;;;;;;4972544;28;20035;-49
2023/05/13 05:13:14;;;;;;;14.00;8.20;;;11.20;99.90;;;;;;4973540;28;20081;-50
2023/05/13 05:15:42;;;;;;;13.13;8.73;;;11.30;99.90;;;;;;4972230;28;20053;-50
2023/05/13 05:18:08;;;;;;;13.55;8.52;;;11.30;99.90;;;;;;4971722;28;20034;-50
2023/05/13 05:20:39;;;;;;;12.07;8.02;;;11.30;99.90;;;;;;4971512;28;20027;-52
2023/05/13 05:23:09;;;;;;;11.83;8.40;;;11.40;99.90;;;;;;4971402;28;20030;-53
2023/05/13 05:25:36;;;;;;;12.25;7.78;;;11.40;99.90;;;;;;4971406;28;20030;-52
2023/05/13 05:28:03;;;;;;;11.85;7.85;;;11.50;99.90;;;;;;4971373;28;20407;-53
2023/05/13 05:30:38;;;;;;;12.60;8.07;;;11.60;99.90;;;;;;4971197;28;20030;-54
2023/05/13 05:33:05;;;;;;;11.65;7.47;;;11.70;99.90;;;;;;4971121;28;20117;-51
2023/05/13 05:35:32;;;;;;;12.43;8.02;;;11.80;99.90;;;;;;4972593;28;20089;-52
2023/05/13 05:37:58;;;;;;;12.68;7.88;;;11.80;99.90;;;;;;4972095;28;20050;-54
2023/05/13 05:40:24;;;;;;;13.60;8.40;;;11.90;99.90;;;;;;4972367;28;20062;-50
2023/05/13 05:42:50;;;;;;;11.30;7.85;;;12.00;99.90;;;;;;4971164;28;20023;-52
2023/05/13 05:45:15;;;;;;;12.23;8.15;;;12.00;99.90;;;;;;4972626;28;20027;-52
2023/05/13 05:47:42;;;;;;;10.25;7.82;;;12.10;99.90;;;;;;4971391;28;20089;-50
2023/05/13 05:50:09;;;;;;;13.43;8.32;;;12.20;99.90;;;;;;4971101;28;20034;-52
2023/05/13 05:52:35;;;;;;;13.80;8.50;;;12.30;99.90;;;;;;4972353;28;20377;-50
2023/05/13 05:55:02;;;;;;;12.63;8.45;;;12.40;99.90;;;;;;4971132;28;20031;-52
2023/05/13 05:57:28;;;;;;;15.10;8.60;;;12.50;99.90;;;;;;4971329;28;20472;-52
2023/05/13 05:59:53;;;;;;;12.82;7.93;;;12.60;99.90;;;;;;4971172;28;20123;-52
2023/05/13 06:02:19;;;;;;;13.75;8.70;;;12.70;99.90;;;;;;4970320;28;20492;-53
2023/05/13 06:04:45;;;;;;;11.75;7.38;;;12.80;99.90;;;;;;4972551;28;20452;-52
2023/05/13 06:07:12;;;;;;;13.40;7.68;;;12.90;99.90;;;;;;4970744;28;20042;-50
2023/05/13 06:09:39;;;;;;;12.98;8.30;;;13.00;99.90;;;;;;4972000;28;20073;-50
2023/05/13 06:12:05;;;;;;;12.30;7.88;;;13.10;99.90;;;;;;4970225;28;20038;-50
2023/05/13 06:14:31;;;;;;;11.18;7.75;;;13.20;99.90;;;;;;4970746;28;20190;-50
2023/05/13 06:16:57;;;;;;;10.80;7.40;;;13.50;99.90;;;;;;4971869;28;20118;-51
2023/05/13 06:19:23;;;;;;;11.82;7.53;;;13.60;99.90;;;;;;4970815;28;20027;-51
2023/05/13 06:21:48;;;;;;;10.43;7.53;;;13.70;99.90;;;;;;4971554;28;20098;-54
2023/05/13 06:24:14;;;;;;;10.82;7.25;;;13.90;99.90;;;;;;4970933;28;20030;-50
2023/05/13 06:26:40;;;;;;;13.10;7.53;;;14.00;99.90;;;;;;4972075;28;20030;-50
2023/05/13 06:29:06;;;;;;;11.27;7.32;;;14.10;99.90;;;;;;4972106;28;20034;-50
2023/05/13 06:31:32;;;;;;;12.90;7.65;;;14.30;99.90;;;;;;4970300;28;20373;-51
2023/05/13 06:33:59;;;;;;;11.10;7.07;;;14.40;99.90;;;;;;4970679;28;20516;-54
2023/05/13 06:36:25;;;;;;;11.35;7.32;;;14.50;99.90;;;;;;4970391;28;20043;-51
2023/05/13 06:38:53;;;;;;;10.20;6.63;;;14.60;99.90;;;;;;4970425;28;20058;-52
2023/05/13 06:41:21;;;;;;;8.15;6.20;;;14.70;99.90;;;;;;4970357;28;20124;-50
2023/05/13 06:43:49;;;;;;;10.90;7.20;;;14.90;99.90;;;;;;4970284;28;20079;-53
2023/05/13 06:46:20;;;;;;;10.18;7.05;;;15.10;99.90;;;;;;4970390;28;20031;-50
2023/05/13 06:48:46;;;;;;;9.00;6.53;;;15.30;99.90;;;;;;4970315;28;20037;-51
2023/05/13 06:51:11;;;;;;;8.93;6.50;;;15.40;99.90;;;;;;4971825;28;20383;-50
2023/05/13 06:53:37;;;;;;;8.00;6.00;;;15.60;99.90;;;;;;4971347;28;20464;-52
2023/05/13 06:56:03;;;;;;;7.50;5.57;;;15.70;99.90;;;;;;4974504;28;20042;-50
2023/05/13 06:58:29;;;;;;;8.65;6.10;;;15.80;99.90;;;;;;4975418;28;20404;-50
2023/05/13 07:00:54;;;;;;;9.38;6.20;;;15.90;99.90;;;;;;4975179;28;20566;-50
2023/05/13 07:03:20;;;;;;;9.38;6.20;;;16.10;99.90;;;;;;4975002;28;20081;-50
2023/05/13 07:05:46;;;;;;;8.55;5.90;;;16.20;99.90;;;;;;4975005;28;20034;-53
2023/05/13 07:08:16;;;;;;;9.40;6.00;;;16.40;99.90;;;;;;4975185;28;20035;-52
2023/05/13 07:10:42;;;;;;;9.50;5.75;;;16.60;99.90;;;;;;4975216;28;20411;-50
2023/05/13 07:13:08;;;;;;;8.45;5.82;;;16.60;99.90;;;;;;4975093;28;20042;-50
2023/05/13 07:15:34;;;;;;;8.00;5.60;;;16.60;99.90;;;;;;4974810;28;20030;-52
2023/05/13 07:17:59;;;;;;;9.57;6.10;;;16.60;99.90;;;;;;4975000;28;20038;-54
2023/05/13 07:20:25;;;;;;;9.30;5.63;;;16.70;99.90;;;;;;4974521;28;20065;-50
2023/05/13 07:22:51;;;;;;;8.57;5.50;;;16.80;99.90;;;;;;4974588;28;20038;-50
2023/05/13 07:25:17;;;;;;;9.40;5.43;;;16.90;99.90;;;;;;4974832;28;20035;-51
2023/05/13 07:27:43;;;;;;;10.50;5.95;;;16.90;99.90;;;;;;4974832;28;20034;-50
2023/05/13 07:30:11;;;;;;;9.02;5.65;;;17.00;99.90;;;;;;4974434;28;20035;-53
2023/05/13 07:32:37;;;;;;;8.20;5.43;;;17.10;99.90;;;;;;4974566;28;20034;-52
2023/05/13 07:35:03;;;;;;;7.28;5.53;;;17.10;99.90;;;;;;4974593;28;20567;-51
2023/05/13 07:37:29;;;;;;;8.30;5.13;;;17.20;99.90;;;;;;4974685;28;20475;-51
2023/05/13 07:39:55;;;;;;;9.55;6.35;;;17.30;99.90;;;;;;4974534;28;20038;-51
2023/05/13 07:42:20;;;;;;;7.15;5.03;;;17.50;99.90;;;;;;4974423;28;20092;-53
2023/05/13 07:44:46;;;;;;;8.80;5.70;;;17.60;99.90;;;;;;4974504;28;20046;-52
2023/05/13 07:47:12;;;;;;;6.72;5.35;;;17.70;99.90;;;;;;4974474;28;20035;-51
2023/05/13 07:49:38;;;;;;;9.15;5.57;;;17.70;99.90;;;;;;4974399;28;20388;-52
2023/05/13 07:52:04;;;;;;;8.82;5.40;;;17.80;99.90;;;;;;4974067;28;20114;-52
2023/05/13 07:54:30;;;;;;;7.63;4.82;;;17.80;99.90;;;;;;4974418;28;20526;-50
2023/05/13 07:56:56;;;;;;;7.55;4.93;;;17.90;99.90;;;;;;4972941;28;20049;-52
2023/05/13 07:59:21;;;;;;;6.00;4.68;;;18.00;99.90;;;;;;4974058;28;20035;-50
2023/05/13 08:01:47;;;;;;;8.57;5.45;;;18.10;99.90;;;;;;4974088;28;20031;-50
2023/05/13 08:04:13;;;;;;;7.40;5.28;;;18.20;99.90;;;;;;4974293;28;20038;-50
2023/05/13 08:06:39;;;;;;;8.40;5.10;;;18.20;99.90;;;;;;4973474;28;20054;-52
2023/05/13 08:09:05;;;;;;;7.90;5.47;;;18.30;99.90;;;;;;4974210;28;20460;-51
2023/05/13 08:11:31;;;;;;;7.03;4.35;;;18.40;99.90;;;;;;4973646;28;20034;-51
2023/05/13 08:13:56;;;;;;;7.05;4.45;;;18.40;99.90;;;;;;4973899;28;20031;-53
2023/05/13 08:16:22;;;;;;;6.22;3.95;;;18.40;99.90;;;;;;4973865;28;20038;-50
2023/05/13 08:18:48;;;;;;;7.95;3.70;;;18.50;99.90;;;;;;4973835;28;20031;-50
2023/05/13 08:21:14;;;;;;;7.10;3.70;;;18.60;99.90;;;;;;4973813;28;20126;-52
2023/05/13 08:23:40;;;;;;;8.05;3.85;;;18.70;99.90;;;;;;4973627;28;20053;-49
2023/05/13 08:26:06;;;;;;;6.72;3.70;;;18.80;99.90;;;;;;4973820;28;20042;-50
2023/05/13 08:28:31;;;;;;;6.22;3.75;;;18.80;99.90;;;;;;4973682;28;20038;-50
2023/05/13 08:31:01;;;;;;;6.15;3.55;;;19.00;99.90;;;;;;4973464;28;20026;-52
2023/05/13 08:33:28;;;;;;;5.65;3.78;;;19.10;99.90;;;;;;4973834;28;20057;-52
2023/05/13 08:35:55;;;;;;;5.47;3.47;;;19.20;99.90;;;;;;4973703;28;20436;-51
2023/05/13 08:38:21;;;;;;;5.70;4.00;;;19.10;99.90;;;;;;4973644;28;20023;-48
2023/05/13 08:40:46;;;;;;;4.97;3.47;;;19.20;99.90;;;;;;4973337;28;20057;-51
2023/05/13 08:43:15;;;;;;;6.43;3.55;;;19.20;99.90;;;;;;4973177;28;20031;-49
2023/05/13 08:45:44;;;;;;;5.90;3.70;;;19.20;99.90;;;;;;4973438;28;20086;-51
2023/05/13 08:48:13;;;;;;;5.95;3.38;;;19.20;99.90;;;;;;4973593;28;20047;-50
2023/05/13 08:50:39;;;;;;;6.78;3.70;;;19.30;99.90;;;;;;4973295;28;20031;-52
2023/05/13 08:53:05;;;;;;;7.13;4.93;;;19.50;99.90;;;;;;4973043;28;20543;-53
2023/05/13 08:55:32;;;;;;;6.78;3.25;;;19.50;99.90;;;;;;4973198;28;20527;-51
2023/05/13 08:57:57;;;;;;;5.25;3.30;;;19.70;99.90;;;;;;4973144;28;20053;-53
2023/05/13 09:00:23;;;;;;;4.85;3.33;;;19.70;99.90;;;;;;4972719;28;20483;-50
2023/05/13 09:02:50;;;;;;;6.18;3.28;;;19.90;99.90;;;;;;4971719;28;20081;-50
2023/05/13 09:05:16;;;;;;;5.93;3.15;;;20.00;99.10;;;;;;4972951;28;20558;-50
2023/05/13 09:07:42;;;;;;;4.90;3.10;;;20.10;99.90;;;;;;4973108;28;20038;-53
2023/05/13 09:10:09;;;;;;;6.07;3.13;;;20.20;99.90;;;;;;4972832;28;20034;-51
2023/05/13 09:13:07;;;;;;;6.30;3.17;;;20.40;99.90;;;;;;4972703;28;20395;-53
2023/05/13 09:15:33;;;;;;;16.90;9.05;;;20.40;99.70;;;;;;4940187;28;20047;-50
2023/05/13 09:18:04;;;;;;;4.75;2.75;;;20.50;99.90;;;;;;4972453;28;20026;-49
2023/05/13 09:20:31;;;;;;;6.32;3.65;;;20.60;99.20;;;;;;4972651;28;20400;-49
2023/05/13 09:23:01;;;;;;;7.45;4.18;;;20.60;98.10;;;;;;4972971;28;20027;-50
2023/05/13 09:25:27;;;;;;;7.05;3.33;;;20.60;96.90;;;;;;4972678;28;20373;-50
2023/05/13 09:27:57;;;;;;;5.50;3.10;;;20.50;96.70;;;;;;4972804;28;20031;-52
2023/05/13 09:30:26;;;;;;;4.88;2.65;;;20.60;95.70;;;;;;4972472;28;20110;-52
2023/05/13 09:33:13;;;;;;;6.15;3.08;;;20.70;99.00;;;;;;4972540;28;20118;-48
2023/05/13 09:35:47;;;;;;;3.97;2.78;;;20.70;98.20;;;;;;4972434;28;20046;-49
2023/05/13 09:38:16;;;;;;;4.32;2.75;;;20.80;98.20;;;;;;4972683;28;20368;-49
2023/05/13 09:40:53;;;;;;;5.50;2.50;;;21.00;95.20;;;;;;4972160;28;20037;-50
2023/05/13 09:43:22;;;;;;;5.32;2.75;;;21.20;94.30;;;;;;4972293;28;20565;-50
2023/05/13 09:45:56;;;;;;;4.10;2.83;;;21.20;95.80;;;;;;4972362;28;20117;-49
2023/05/13 09:48:25;;;;;;;5.05;2.75;;;21.40;96.00;;;;;;4972664;28;20368;-50
2023/05/13 09:50:52;;;;;;;5.13;2.78;;;21.50;93.10;;;;;;4972331;28;20506;-48
2023/05/13 09:53:19;;;;;;;3.33;2.42;;;21.50;92.40;;;;;;4972199;28;20096;-48
2023/05/13 09:55:49;;;;;;;4.80;2.55;;;21.50;93.10;;;;;;4972271;28;20074;-48
2023/05/13 09:58:15;;;;;;;4.40;2.53;;;21.60;92.80;;;;;;4972453;28;20065;-51
2023/05/13 10:00:42;;;;;;;5.25;2.60;;;21.70;94.00;;;;;;4972069;28;20058;-49
2023/05/13 10:03:08;;;;;;;3.67;2.58;;;21.80;93.80;;;;;;4972048;28;20037;-51
2023/05/13 10:05:35;;;;;;;3.42;2.33;;;22.00;91.50;;;;;;4972254;28;20389;-49
2023/05/13 10:08:01;;;;;;;4.70;2.60;;;22.00;92.50;;;;;;4972168;28;20031;-50
2023/05/13 10:10:30;;;;;;;4.97;2.60;;;22.10;89.80;;;;;;4971900;28;20035;-51
2023/05/13 10:12:59;;;;;;;3.63;2.30;;;22.10;88.80;;;;;;4972058;28;20031;-52
2023/05/13 10:15:25;;;;;;;3.65;2.25;;;22.30;90.80;;;;;;4972216;28;20042;-52
2023/05/13 10:17:52;;;;;;;4.20;2.40;;;22.30;89.10;;;;;;4972400;28;20043;-49
2023/05/13 10:20:18;;;;;;;3.50;2.20;;;22.30;88.50;;;;;;4972124;28;20081;-50
2023/05/13 10:22:43;;;;;;;4.30;2.45;;;22.30;90.60;;;;;;4970593;28;20491;-52
2023/05/13 10:25:10;;;;;;;3.67;2.00;;;22.30;91.80;;;;;;4971964;28;20106;-49
2023/05/13 10:27:37;;;;;;;4.60;3.00;;;22.40;87.50;;;;;;4971161;28;20041;-50
2023/05/13 10:30:08;;;;;;;4.38;2.60;;;22.60;88.80;;;;;;4973042;28;20034;-52
2023/05/13 10:32:38;;;;;;;4.32;2.28;;;22.60;87.70;;;;;;4976020;28;20048;-50
2023/05/13 10:35:10;;;;;;;3.45;2.30;;;22.60;88.50;;;;;;4975922;28;20041;-51
2023/05/13 10:37:45;;;;;;;4.40;2.40;;;22.50;82.60;;;;;;4975962;28;20031;-49
2023/05/13 10:40:23;;;;;;;3.67;2.40;;;22.70;84.60;;;;;;4975540;28;20038;-49
2023/05/13 10:43:19;;;;;;;4.05;2.30;;;22.70;80.80;;;;;;4975566;28;20026;-52
2023/05/13 10:45:48;;;;;;;10.25;5.78;;;22.80;82.00;;;;;;4976259;28;20169;-53
2023/05/13 10:48:16;;;;;;;4.30;2.58;;;22.80;86.60;;;;;;4976050;28;20035;-53
2023/05/13 10:50:56;;;;;;;4.07;2.53;;;22.90;85.10;;;;;;4975315;28;20042;-51
2023/05/13 10:53:27;;;;;;;3.95;2.22;;;22.80;80.30;;;;;;4975317;28;20622;-50
2023/05/13 10:55:58;;;;;;;5.32;3.70;;;22.90;77.80;;;;;;4975349;28;20038;-49
2023/05/13 10:58:38;;;;;;;4.07;2.25;;;23.00;82.10;;;;;;4975500;28;20042;-50
2023/05/13 11:01:20;;;;;;;5.38;3.42;;;23.00;77.70;;;;;;4975103;28;20364;-51
2023/05/13 11:03:51;;;;;;;9.00;4.65;;;23.10;80.10;;;;;;4975506;28;20122;-49
2023/05/13 11:06:23;;;;;;;4.00;2.58;;;23.20;79.70;;;;;;4975314;28;20046;-50
2023/05/13 11:08:50;;;;;;;3.45;2.35;;;23.20;82.10;;;;;;4975394;28;20384;-53
2023/05/13 11:11:22;;;;;;;4.20;2.47;;;23.20;85.20;;;;;;4974906;28;20035;-49
2023/05/13 11:14:12;;;;;;;5.38;3.13;;;23.20;82.20;;;;;;4974950;28;20476;-50
2023/05/13 11:16:37;;;;;;;3.60;2.47;;;23.10;79.90;;;;;;4975063;28;20045;-51
2023/05/13 11:19:08;;;;;;;4.45;2.97;;;23.00;79.70;;;;;;4975063;28;20027;-51
2023/05/13 11:21:40;;;;;;;5.32;3.33;;;22.90;79.70;;;;;;4973358;28;20034;-53
2023/05/13 11:24:06;;;;;;;3.97;2.40;;;22.90;79.70;;;;;;4974754;28;20110;-53
2023/05/13 11:26:52;;;;;;;5.05;2.78;;;23.00;77.40;;;;;;4974939;28;20034;-50
2023/05/13 11:29:33;;;;;;;4.03;2.53;;;23.00;80.00;;;;;;4975072;28;20412;-52
2023/05/13 11:32:00;;;;;;;4.30;2.42;;;23.00;78.80;;;;;;4974449;28;20059;-50
2023/05/13 11:34:26;;;;;;;5.28;2.92;;;22.90;78.10;;;;;;4974694;28;20484;-49
2023/05/13 11:37:08;;;;;;;9.18;5.55;;;23.00;78.20;;;;;;4974694;28;20077;-52
2023/05/13 11:39:35;;;;;;;8.90;6.20;;;23.00;76.20;;;;;;4974927;28;20050;-51
2023/05/13 11:42:05;;;;;;;3.40;2.20;;;23.10;76.60;;;;;;4974557;28;20432;-50
2023/05/13 11:44:33;;;;;;;3.67;2.55;;;23.10;75.60;;;;;;4974763;28;20023;-53
2023/05/13 11:47:05;;;;;;;3.25;2.42;;;23.20;76.20;;;;;;4974754;28;20057;-50
2023/05/13 11:49:44;;;;;;;8.65;5.72;;;23.30;75.70;;;;;;4974394;28;20039;-51
2023/05/13 11:52:13;;;;;;;5.38;2.47;;;23.30;74.20;;;;;;4972809;28;20495;-52
2023/05/13 11:54:48;;;;;;;5.70;2.80;;;23.30;72.20;;;;;;4974747;28;20045;-49
2023/05/13 11:57:16;;;;;;;4.07;2.60;;;23.30;72.30;;;;;;4974321;28;20070;-51
2023/05/13 11:59:56;;;;;;;;;;;23.40;74.90;;;;;;4974863;28;20270;-51
2023/05/13 12:02:24;;;;;;;4.78;3.33;;;23.50;72.10;;;;;;4973936;28;19914;-53
2023/05/13 12:04:51;;;;;;;4.03;2.70;;;23.60;76.70;;;;;;4974174;28;20038;-50
2023/05/13 12:07:24;;;;;;;3.97;2.22;;;23.70;71.40;;;;;;4974237;28;20031;-52
2023/05/13 12:09:51;;;;;;;3.60;2.10;;;23.70;72.30;;;;;;4974268;28;20045;-53
2023/05/13 12:12:17;;;;;;;7.07;3.13;;;23.60;69.40;;;;;;4974107;28;20035;-49
2023/05/13 12:14:45;;;;;;;5.00;2.88;;;23.50;70.70;;;;;;4974082;28;20038;-50
2023/05/13 12:17:12;;;;;;;5.05;2.75;;;23.50;69.60;;;;;;4974064;28;20038;-53
2023/05/13 12:19:39;;;;;;;3.47;2.17;;;23.40;73.80;;;;;;4974146;28;20089;-50
2023/05/13 12:22:05;;;;;;;3.97;2.50;;;23.40;70.40;;;;;;4973531;28;20113;-50
2023/05/13 12:24:34;;;;;;;5.80;3.60;;;23.30;67.80;;;;;;4973781;28;20472;-53
2023/05/13 12:27:06;;;;;;;5.80;2.90;;;23.40;68.80;;;;;;4973731;28;20034;-50
2023/05/13 12:29:42;;;;;;;3.83;2.50;;;23.40;69.10;;;;;;4973785;28;20042;-52
2023/05/13 12:32:08;;;;;;;5.18;2.60;;;23.40;65.20;;;;;;4973233;28;20491;-49
2023/05/13 12:34:34;;;;;;;4.30;2.50;;;23.50;69.50;;;;;;4973713;28;20034;-50
2023/05/13 12:37:13;;;;;;;4.82;2.50;;;23.60;68.50;;;;;;4973413;28;20106;-49
2023/05/13 12:39:40;;;;;;;3.65;2.33;;;23.80;71.60;;;;;;4973585;28;20031;-51
2023/05/13 12:42:16;;;;;;;3.50;2.20;;;23.70;71.70;;;;;;4973065;28;20019;-49
2023/05/13 12:44:43;;;;;;;3.85;2.22;;;23.50;73.00;;;;;;4974051;28;20038;-50